sensor_id;sensor_type;location;lat;lon;timestamp;P1;durP1;ratioP1;P2;durP2;ratioP2
16093;SDS011;8151;47.824;12.092;2024-03-23T00:54:15;4.60;;;2.30;;
16093;SDS011;8151;47.824;12.092;2024-03-23T00:56:42;1.97;;;1.60;;
16093;SDS011;8151;47.824;12.092;2024-03-23T00:59:09;2.87;;;1.90;;
16093;SDS011;8151;47.824;12.092;2024-03-23T01:01:36;2.73;;;2.00;;
16093;SDS011;8151;47.824;12.092;2024-03-23T01:04:02;2.57;;;1.90;;
16093;SDS011;8151;47.824;12.092;2024-03-23T01:06:30;2.37;;;1.70;;
16093;SDS011;8151;47.824;12.092;2024-03-23T01:08:56;1.80;;;1.70;;
16093;SDS011;8151;47.824;12.092;2024-03-23T01:11:25;2.50;;;1.90;;
16093;SDS011;8151;47.824;12.092;2024-03-23T01:13:53;4.23;;;1.83;;
16093;SDS011;8151;47.824;12.092;2024-03-23T01:16:20;2.20;;;2.00;;
16093;SDS011;8151;47.824;12.092;2024-03-23T01:18:47;2.00;;;1.63;;
16093;SDS011;8151;47.824;12.092;2024-03-23T01:21:14;1.80;;;1.70;;
16093;SDS011;8151;47.824;12.092;2024-03-23T01:23:41;3.50;;;1.80;;
16093;SDS011;8151;47.824;12.092;2024-03-23T01:26:08;2.20;;;2.10;;
16093;SDS011;8151;47.824;12.092;2024-03-23T01:28:36;3.40;;;1.87;;
16093;SDS011;8151;47.824;12.092;2024-03-23T01:31:03;4.27;;;2.20;;
16093;SDS011;8151;47.824;12.092;2024-03-23T01:33:30;3.37;;;1.80;;
16093;SDS011;8151;47.824;12.092;2024-03-23T01:35:57;4.27;;;2.07;;
16093;SDS011;8151;47.824;12.092;2024-03-23T01:38:24;2.77;;;1.60;;
16093;SDS011;8151;47.824;12.092;2024-03-23T01:40:55;2.47;;;2.17;;
16093;SDS011;8151;47.824;12.092;2024-03-23T01:43:23;2.37;;;1.80;;
16093;SDS011;8151;47.824;12.092;2024-03-23T01:45:51;2.03;;;1.80;;
16093;SDS011;8151;47.824;12.092;2024-03-23T01:48:19;2.13;;;1.90;;
16093;SDS011;8151;47.824;12.092;2024-03-23T01:50:46;2.10;;;1.90;;
16093;SDS011;8151;47.824;12.092;2024-03-23T01:53:14;2.30;;;1.97;;
16093;SDS011;8151;47.824;12.092;2024-03-23T01:55:43;2.63;;;1.73;;
16093;SDS011;8151;47.824;12.092;2024-03-23T01:58:09;2.03;;;1.80;;
16093;SDS011;8151;47.824;12.092;2024-03-23T02:00:37;3.03;;;1.90;;
16093;SDS011;8151;47.824;12.092;2024-03-23T02:03:13;4.47;;;1.83;;
16093;SDS011;8151;47.824;12.092;2024-03-23T02:05:49;3.43;;;1.60;;
16093;SDS011;8151;47.824;12.092;2024-03-23T02:08:17;1.87;;;1.60;;
16093;SDS011;8151;47.824;12.092;2024-03-23T02:10:45;2.97;;;1.60;;
16093;SDS011;8151;47.824;12.092;2024-03-23T02:13:11;1.97;;;1.73;;
16093;SDS011;8151;47.824;12.092;2024-03-23T02:15:39;3.10;;;1.90;;
16093;SDS011;8151;47.824;12.092;2024-03-23T02:18:06;2.90;;;1.60;;
16093;SDS011;8151;47.824;12.092;2024-03-23T02:20:36;5.07;;;2.10;;
16093;SDS011;8151;47.824;12.092;2024-03-23T02:23:04;1.90;;;1.80;;
16093;SDS011;8151;47.824;12.092;2024-03-23T02:25:32;1.63;;;1.53;;
16093;SDS011;8151;47.824;12.092;2024-03-23T02:27:59;3.47;;;2.00;;
16093;SDS011;8151;47.824;12.092;2024-03-23T02:30:26;2.20;;;2.00;;
16093;SDS011;8151;47.824;12.092;2024-03-23T02:32:53;2.77;;;1.53;;
16093;SDS011;8151;47.824;12.092;2024-03-23T02:35:20;3.13;;;1.53;;
16093;SDS011;8151;47.824;12.092;2024-03-23T02:37:47;1.93;;;1.70;;
16093;SDS011;8151;47.824;12.092;2024-03-23T02:40:16;2.10;;;1.77;;
16093;SDS011;8151;47.824;12.092;2024-03-23T02:42:43;3.03;;;1.47;;
16093;SDS011;8151;47.824;12.092;2024-03-23T02:45:10;1.70;;;1.57;;
16093;SDS011;8151;47.824;12.092;2024-03-23T02:47:37;1.97;;;1.63;;
16093;SDS011;8151;47.824;12.092;2024-03-23T02:50:05;1.70;;;1.60;;
16093;SDS011;8151;47.824;12.092;2024-03-23T02:52:32;3.13;;;1.87;;
16093;SDS011;8151;47.824;12.092;2024-03-23T02:54:59;1.63;;;1.43;;
16093;SDS011;8151;47.824;12.092;2024-03-23T02:57:29;1.77;;;1.60;;
16093;SDS011;8151;47.824;12.092;2024-03-23T02:59:56;2.00;;;1.80;;
16093;SDS011;8151;47.824;12.092;2024-03-23T03:02:23;1.50;;;1.40;;
16093;SDS011;8151;47.824;12.092;2024-03-23T03:04:50;2.77;;;1.70;;
16093;SDS011;8151;47.824;12.092;2024-03-23T03:07:17;2.07;;;1.67;;
16093;SDS011;8151;47.824;12.092;2024-03-23T03:09:44;4.30;;;1.73;;
16093;SDS011;8151;47.824;12.092;2024-03-23T03:12:10;2.00;;;1.80;;
16093;SDS011;8151;47.824;12.092;2024-03-23T03:14:39;3.50;;;1.83;;
16093;SDS011;8151;47.824;12.092;2024-03-23T03:17:05;4.40;;;1.60;;
16093;SDS011;8151;47.824;12.092;2024-03-23T03:19:33;1.80;;;1.70;;
16093;SDS011;8151;47.824;12.092;2024-03-23T03:22:00;2.73;;;1.73;;
16093;SDS011;8151;47.824;12.092;2024-03-23T03:24:27;4.57;;;1.73;;
16093;SDS011;8151;47.824;12.092;2024-03-23T03:26:54;4.07;;;1.90;;
16093;SDS011;8151;47.824;12.092;2024-03-23T03:29:21;2.43;;;1.63;;
16093;SDS011;8151;47.824;12.092;2024-03-23T03:31:49;3.80;;;2.10;;
16093;SDS011;8151;47.824;12.092;2024-03-23T03:34:16;2.00;;;1.80;;
16093;SDS011;8151;47.824;12.092;2024-03-23T03:36:43;2.17;;;1.97;;
16093;SDS011;8151;47.824;12.092;2024-03-23T03:39:10;2.37;;;1.77;;
16093;SDS011;8151;47.824;12.092;2024-03-23T03:41:38;3.23;;;2.20;;
16093;SDS011;8151;47.824;12.092;2024-03-23T03:44:05;3.50;;;2.27;;
16093;SDS011;8151;47.824;12.092;2024-03-23T03:46:32;2.10;;;1.90;;
16093;SDS011;8151;47.824;12.092;2024-03-23T03:49:01;5.37;;;2.20;;
16093;SDS011;8151;47.824;12.092;2024-03-23T03:51:27;3.27;;;2.03;;
16093;SDS011;8151;47.824;12.092;2024-03-23T03:53:55;2.47;;;2.20;;
16093;SDS011;8151;47.824;12.092;2024-03-23T03:56:21;4.37;;;1.63;;
16093;SDS011;8151;47.824;12.092;2024-03-23T03:58:49;2.33;;;2.03;;
16093;SDS011;8151;47.824;12.092;2024-03-23T04:01:15;2.77;;;1.70;;
16093;SDS011;8151;47.824;12.092;2024-03-23T04:03:43;2.77;;;1.80;;
16093;SDS011;8151;47.824;12.092;2024-03-23T04:06:11;1.57;;;1.47;;
16093;SDS011;8151;47.824;12.092;2024-03-23T04:08:38;3.10;;;2.10;;
16093;SDS011;8151;47.824;12.092;2024-03-23T04:11:05;2.00;;;1.80;;
16093;SDS011;8151;47.824;12.092;2024-03-23T04:13:32;2.00;;;1.90;;
16093;SDS011;8151;47.824;12.092;2024-03-23T04:15:59;2.23;;;1.80;;
16093;SDS011;8151;47.824;12.092;2024-03-23T04:18:27;2.53;;;1.90;;
16093;SDS011;8151;47.824;12.092;2024-03-23T04:20:53;2.10;;;1.60;;
16093;SDS011;8151;47.824;12.092;2024-03-23T04:23:22;1.97;;;1.60;;
16093;SDS011;8151;47.824;12.092;2024-03-23T04:25:49;2.60;;;1.80;;
16093;SDS011;8151;47.824;12.092;2024-03-23T04:28:17;2.53;;;1.80;;
16093;SDS011;8151;47.824;12.092;2024-03-23T04:30:44;2.33;;;1.50;;
16093;SDS011;8151;47.824;12.092;2024-03-23T04:33:11;2.73;;;1.77;;
16093;SDS011;8151;47.824;12.092;2024-03-23T04:35:38;3.97;;;1.80;;
16093;SDS011;8151;47.824;12.092;2024-03-23T04:38:05;1.63;;;1.50;;
16093;SDS011;8151;47.824;12.092;2024-03-23T04:40:34;1.70;;;1.60;;
16093;SDS011;8151;47.824;12.092;2024-03-23T04:43:01;2.93;;;1.70;;
16093;SDS011;8151;47.824;12.092;2024-03-23T04:45:30;2.00;;;1.73;;
16093;SDS011;8151;47.824;12.092;2024-03-23T04:47:57;2.10;;;1.63;;
16093;SDS011;8151;47.824;12.092;2024-03-23T04:50:25;2.43;;;2.03;;
16093;SDS011;8151;47.824;12.092;2024-03-23T04:52:52;1.80;;;1.70;;
16093;SDS011;8151;47.824;12.092;2024-03-23T04:55:20;4.03;;;1.90;;
16093;SDS011;8151;47.824;12.092;2024-03-23T04:57:49;4.43;;;2.10;;
16093;SDS011;8151;47.824;12.092;2024-03-23T05:00:17;2.27;;;1.70;;
16093;SDS011;8151;47.824;12.092;2024-03-23T05:02:44;2.33;;;1.50;;
16093;SDS011;8151;47.824;12.092;2024-03-23T05:05:12;1.77;;;1.53;;
16093;SDS011;8151;47.824;12.092;2024-03-23T05:07:38;2.03;;;1.80;;
16093;SDS011;8151;47.824;12.092;2024-03-23T05:10:08;2.40;;;1.70;;
16093;SDS011;8151;47.824;12.092;2024-03-23T05:12:36;3.43;;;1.70;;
16093;SDS011;8151;47.824;12.092;2024-03-23T05:15:06;4.10;;;1.80;;
16093;SDS011;8151;47.824;12.092;2024-03-23T05:17:33;2.63;;;1.50;;
16093;SDS011;8151;47.824;12.092;2024-03-23T05:20:02;2.40;;;1.60;;
16093;SDS011;8151;47.824;12.092;2024-03-23T05:22:29;2.83;;;1.80;;
16093;SDS011;8151;47.824;12.092;2024-03-23T05:24:57;2.20;;;1.70;;
16093;SDS011;8151;47.824;12.092;2024-03-23T05:27:23;7.60;;;1.70;;
16093;SDS011;8151;47.824;12.092;2024-03-23T05:29:50;1.90;;;1.77;;
16093;SDS011;8151;47.824;12.092;2024-03-23T05:32:18;2.13;;;1.70;;
16093;SDS011;8151;47.824;12.092;2024-03-23T05:34:46;2.80;;;1.77;;
16093;SDS011;8151;47.824;12.092;2024-03-23T05:37:13;1.83;;;1.63;;
16093;SDS011;8151;47.824;12.092;2024-03-23T05:39:40;2.83;;;1.70;;
16093;SDS011;8151;47.824;12.092;2024-03-23T05:42:06;1.90;;;1.67;;
16093;SDS011;8151;47.824;12.092;2024-03-23T05:44:34;1.57;;;1.47;;
16093;SDS011;8151;47.824;12.092;2024-03-23T05:47:00;2.00;;;1.70;;
16093;SDS011;8151;47.824;12.092;2024-03-23T05:49:29;2.57;;;1.70;;
16093;SDS011;8151;47.824;12.092;2024-03-23T05:51:55;2.00;;;1.70;;
16093;SDS011;8151;47.824;12.092;2024-03-23T05:54:23;3.13;;;1.70;;
16093;SDS011;8151;47.824;12.092;2024-03-23T05:56:49;3.07;;;1.50;;
16093;SDS011;8151;47.824;12.092;2024-03-23T05:59:21;1.63;;;1.47;;
16093;SDS011;8151;47.824;12.092;2024-03-23T06:01:48;2.10;;;1.70;;
16093;SDS011;8151;47.824;12.092;2024-03-23T06:04:15;3.03;;;1.73;;
16093;SDS011;8151;47.824;12.092;2024-03-23T06:06:43;1.67;;;1.57;;
16093;SDS011;8151;47.824;12.092;2024-03-23T06:09:10;1.97;;;1.67;;
16093;SDS011;8151;47.824;12.092;2024-03-23T06:11:37;3.23;;;1.80;;
16093;SDS011;8151;47.824;12.092;2024-03-23T06:14:04;2.13;;;1.70;;
16093;SDS011;8151;47.824;12.092;2024-03-23T06:16:31;1.60;;;1.50;;
16093;SDS011;8151;47.824;12.092;2024-03-23T06:18:59;5.13;;;1.73;;
16093;SDS011;8151;47.824;12.092;2024-03-23T06:21:25;1.83;;;1.50;;
16093;SDS011;8151;47.824;12.092;2024-03-23T06:23:55;2.43;;;1.70;;
16093;SDS011;8151;47.824;12.092;2024-03-23T06:26:21;1.60;;;1.50;;
16093;SDS011;8151;47.824;12.092;2024-03-23T06:28:48;1.30;;;1.20;;
16093;SDS011;8151;47.824;12.092;2024-03-23T06:31:15;2.60;;;1.53;;
16093;SDS011;8151;47.824;12.092;2024-03-23T06:33:42;1.80;;;1.70;;
16093;SDS011;8151;47.824;12.092;2024-03-23T06:36:09;1.53;;;1.43;;
16093;SDS011;8151;47.824;12.092;2024-03-23T06:38:37;3.17;;;1.20;;
16093;SDS011;8151;47.824;12.092;2024-03-23T06:41:05;1.60;;;1.50;;
16093;SDS011;8151;47.824;12.092;2024-03-23T06:43:33;4.73;;;1.50;;
16093;SDS011;8151;47.824;12.092;2024-03-23T06:45:59;1.33;;;1.23;;
16093;SDS011;8151;47.824;12.092;2024-03-23T06:48:27;1.40;;;1.30;;
16093;SDS011;8151;47.824;12.092;2024-03-23T06:50:55;3.43;;;1.80;;
16093;SDS011;8151;47.824;12.092;2024-03-23T06:53:23;2.23;;;1.60;;
16093;SDS011;8151;47.824;12.092;2024-03-23T06:55:50;3.30;;;1.43;;
16093;SDS011;8151;47.824;12.092;2024-03-23T06:58:20;4.13;;;1.40;;
16093;SDS011;8151;47.824;12.092;2024-03-23T07:00:47;1.70;;;1.37;;
16093;SDS011;8151;47.824;12.092;2024-03-23T07:03:14;1.93;;;1.23;;
16093;SDS011;8151;47.824;12.092;2024-03-23T07:05:41;1.93;;;1.57;;
16093;SDS011;8151;47.824;12.092;2024-03-23T07:08:08;1.30;;;1.20;;
16093;SDS011;8151;47.824;12.092;2024-03-23T07:10:35;1.97;;;1.57;;
16093;SDS011;8151;47.824;12.092;2024-03-23T07:13:05;2.00;;;1.20;;
16093;SDS011;8151;47.824;12.092;2024-03-23T07:15:33;2.43;;;1.23;;
16093;SDS011;8151;47.824;12.092;2024-03-23T07:18:01;2.30;;;1.30;;
16093;SDS011;8151;47.824;12.092;2024-03-23T07:20:27;2.90;;;1.50;;
16093;SDS011;8151;47.824;12.092;2024-03-23T07:22:56;1.93;;;1.50;;
16093;SDS011;8151;47.824;12.092;2024-03-23T07:25:23;1.53;;;1.30;;
16093;SDS011;8151;47.824;12.092;2024-03-23T07:27:52;1.63;;;1.40;;
16093;SDS011;8151;47.824;12.092;2024-03-23T07:30:19;1.60;;;1.50;;
16093;SDS011;8151;47.824;12.092;2024-03-23T07:32:48;1.83;;;1.40;;
16093;SDS011;8151;47.824;12.092;2024-03-23T07:35:14;2.20;;;1.53;;
16093;SDS011;8151;47.824;12.092;2024-03-23T07:37:42;3.37;;;1.50;;
16093;SDS011;8151;47.824;12.092;2024-03-23T07:40:09;3.67;;;1.67;;
16093;SDS011;8151;47.824;12.092;2024-03-23T07:42:37;3.37;;;1.40;;
16093;SDS011;8151;47.824;12.092;2024-03-23T07:45:04;1.30;;;1.20;;
16093;SDS011;8151;47.824;12.092;2024-03-23T07:47:32;3.97;;;1.27;;
16093;SDS011;8151;47.824;12.092;2024-03-23T07:50:00;3.63;;;1.20;;
16093;SDS011;8151;47.824;12.092;2024-03-23T07:52:28;1.37;;;1.27;;
16093;SDS011;8151;47.824;12.092;2024-03-23T07:54:54;1.53;;;1.40;;
16093;SDS011;8151;47.824;12.092;2024-03-23T07:57:22;3.50;;;1.30;;
16093;SDS011;8151;47.824;12.092;2024-03-23T07:59:48;3.87;;;1.80;;
16093;SDS011;8151;47.824;12.092;2024-03-23T08:02:15;1.40;;;1.30;;
16093;SDS011;8151;47.824;12.092;2024-03-23T08:04:42;3.77;;;1.50;;
16093;SDS011;8151;47.824;12.092;2024-03-23T08:07:11;2.20;;;1.50;;
16093;SDS011;8151;47.824;12.092;2024-03-23T08:09:37;2.10;;;1.23;;
16093;SDS011;8151;47.824;12.092;2024-03-23T08:12:04;1.67;;;1.50;;
16093;SDS011;8151;47.824;12.092;2024-03-23T08:14:31;2.50;;;1.70;;
16093;SDS011;8151;47.824;12.092;2024-03-23T08:16:58;4.23;;;1.70;;
16093;SDS011;8151;47.824;12.092;2024-03-23T08:19:25;1.63;;;1.30;;
16093;SDS011;8151;47.824;12.092;2024-03-23T08:21:52;1.97;;;1.27;;
16093;SDS011;8151;47.824;12.092;2024-03-23T08:24:21;2.20;;;1.43;;
16093;SDS011;8151;47.824;12.092;2024-03-23T08:26:49;3.17;;;1.27;;
16093;SDS011;8151;47.824;12.092;2024-03-23T08:29:15;4.50;;;1.80;;
16093;SDS011;8151;47.824;12.092;2024-03-23T08:31:43;1.80;;;1.70;;
16093;SDS011;8151;47.824;12.092;2024-03-23T08:34:09;2.53;;;1.50;;
16093;SDS011;8151;47.824;12.092;2024-03-23T08:36:37;3.57;;;1.30;;
16093;SDS011;8151;47.824;12.092;2024-03-23T08:39:03;1.93;;;1.20;;
16093;SDS011;8151;47.824;12.092;2024-03-23T08:41:32;1.63;;;1.20;;
16093;SDS011;8151;47.824;12.092;2024-03-23T08:43:59;1.40;;;1.27;;
16093;SDS011;8151;47.824;12.092;2024-03-23T08:46:26;3.23;;;1.20;;
16093;SDS011;8151;47.824;12.092;2024-03-23T08:48:53;2.07;;;1.37;;
16093;SDS011;8151;47.824;12.092;2024-03-23T08:51:20;1.63;;;1.30;;
16093;SDS011;8151;47.824;12.092;2024-03-23T08:53:47;4.20;;;1.60;;
16093;SDS011;8151;47.824;12.092;2024-03-23T08:56:14;1.70;;;1.30;;
16093;SDS011;8151;47.824;12.092;2024-03-23T08:58:43;3.23;;;1.93;;
16093;SDS011;8151;47.824;12.092;2024-03-23T09:01:10;4.03;;;1.80;;
16093;SDS011;8151;47.824;12.092;2024-03-23T09:03:39;1.07;;;0.97;;
16093;SDS011;8151;47.824;12.092;2024-03-23T09:06:06;2.47;;;0.57;;
16093;SDS011;8151;47.824;12.092;2024-03-23T09:08:34;0.93;;;0.73;;
16093;SDS011;8151;47.824;12.092;2024-03-23T09:11:05;0.50;;;0.50;;
16093;SDS011;8151;47.824;12.092;2024-03-23T09:13:32;0.70;;;0.47;;
16093;SDS011;8151;47.824;12.092;2024-03-23T09:16:02;0.60;;;0.50;;
16093;SDS011;8151;47.824;12.092;2024-03-23T09:18:30;0.53;;;0.50;;
16093;SDS011;8151;47.824;12.092;2024-03-23T09:20:59;0.83;;;0.73;;
16093;SDS011;8151;47.824;12.092;2024-03-23T09:23:25;0.63;;;0.47;;
16093;SDS011;8151;47.824;12.092;2024-03-23T09:25:52;2.20;;;0.50;;
16093;SDS011;8151;47.824;12.092;2024-03-23T09:28:19;0.47;;;0.47;;
16093;SDS011;8151;47.824;12.092;2024-03-23T09:30:46;2.00;;;0.80;;
16093;SDS011;8151;47.824;12.092;2024-03-23T09:33:14;1.20;;;1.00;;
16093;SDS011;8151;47.824;12.092;2024-03-23T09:35:43;1.10;;;1.00;;
16093;SDS011;8151;47.824;12.092;2024-03-23T09:38:10;0.97;;;0.90;;
16093;SDS011;8151;47.824;12.092;2024-03-23T09:40:40;1.07;;;0.90;;
16093;SDS011;8151;47.824;12.092;2024-03-23T09:43:07;0.70;;;0.70;;
16093;SDS011;8151;47.824;12.092;2024-03-23T09:45:36;1.60;;;0.80;;
16093;SDS011;8151;47.824;12.092;2024-03-23T09:48:05;1.00;;;0.70;;
16093;SDS011;8151;47.824;12.092;2024-03-23T09:50:37;0.63;;;0.63;;
16093;SDS011;8151;47.824;12.092;2024-03-23T09:53:04;1.30;;;1.07;;
16093;SDS011;8151;47.824;12.092;2024-03-23T09:55:33;1.23;;;0.90;;
16093;SDS011;8151;47.824;12.092;2024-03-23T09:58:01;1.30;;;0.90;;
16093;SDS011;8151;47.824;12.092;2024-03-23T10:00:30;0.70;;;0.70;;
16093;SDS011;8151;47.824;12.092;2024-03-23T10:02:57;0.83;;;0.83;;
16093;SDS011;8151;47.824;12.092;2024-03-23T10:05:28;1.10;;;1.10;;
16093;SDS011;8151;47.824;12.092;2024-03-23T10:07:56;0.70;;;0.70;;
16093;SDS011;8151;47.824;12.092;2024-03-23T10:10:24;1.10;;;1.00;;
16093;SDS011;8151;47.824;12.092;2024-03-23T10:12:52;1.43;;;1.30;;
16093;SDS011;8151;47.824;12.092;2024-03-23T10:15:20;2.63;;;1.13;;
16093;SDS011;8151;47.824;12.092;2024-03-23T10:17:49;1.73;;;0.90;;
16093;SDS011;8151;47.824;12.092;2024-03-23T10:20:19;1.43;;;0.87;;
16093;SDS011;8151;47.824;12.092;2024-03-23T10:22:48;2.83;;;0.80;;
16093;SDS011;8151;47.824;12.092;2024-03-23T10:25:17;1.57;;;0.97;;
16093;SDS011;8151;47.824;12.092;2024-03-23T10:27:56;3.60;;;1.00;;
16093;SDS011;8151;47.824;12.092;2024-03-23T10:30:25;1.33;;;1.23;;
16093;SDS011;8151;47.824;12.092;2024-03-23T10:32:57;1.60;;;0.87;;
16093;SDS011;8151;47.824;12.092;2024-03-23T10:35:34;0.53;;;0.43;;
16093;SDS011;8151;47.824;12.092;2024-03-23T10:38:02;0.50;;;0.50;;
16093;SDS011;8151;47.824;12.092;2024-03-23T10:40:34;0.50;;;0.33;;
16093;SDS011;8151;47.824;12.092;2024-03-23T10:43:01;0.77;;;0.57;;
16093;SDS011;8151;47.824;12.092;2024-03-23T10:45:30;0.43;;;0.30;;
16093;SDS011;8151;47.824;12.092;2024-03-23T10:47:57;0.90;;;0.30;;
16093;SDS011;8151;47.824;12.092;2024-03-23T10:50:24;0.20;;;0.20;;
16093;SDS011;8151;47.824;12.092;2024-03-23T10:52:52;0.10;;;0.10;;
16093;SDS011;8151;47.824;12.092;2024-03-23T10:55:22;0.20;;;0.20;;
16093;SDS011;8151;47.824;12.092;2024-03-23T10:57:51;0.17;;;0.17;;
16093;SDS011;8151;47.824;12.092;2024-03-23T11:00:21;0.67;;;0.37;;
16093;SDS011;8151;47.824;12.092;2024-03-23T11:02:49;2.27;;;0.47;;
16093;SDS011;8151;47.824;12.092;2024-03-23T11:05:29;0.93;;;0.60;;
16093;SDS011;8151;47.824;12.092;2024-03-23T11:07:56;0.30;;;0.30;;
16093;SDS011;8151;47.824;12.092;2024-03-23T11:10:27;0.47;;;0.20;;
16093;SDS011;8151;47.824;12.092;2024-03-23T11:12:56;0.60;;;0.47;;
16093;SDS011;8151;47.824;12.092;2024-03-23T11:15:24;0.80;;;0.40;;
16093;SDS011;8151;47.824;12.092;2024-03-23T11:18:03;1.27;;;0.47;;
16093;SDS011;8151;47.824;12.092;2024-03-23T11:20:33;0.20;;;0.20;;
16093;SDS011;8151;47.824;12.092;2024-03-23T11:23:00;0.40;;;0.40;;
16093;SDS011;8151;47.824;12.092;2024-03-23T11:25:28;0.40;;;0.40;;
16093;SDS011;8151;47.824;12.092;2024-03-23T11:27:57;0.50;;;0.50;;
16093;SDS011;8151;47.824;12.092;2024-03-23T11:30:27;0.50;;;0.43;;
16093;SDS011;8151;47.824;12.092;2024-03-23T11:32:55;2.03;;;0.40;;
16093;SDS011;8151;47.824;12.092;2024-03-23T11:35:27;0.53;;;0.40;;
16093;SDS011;8151;47.824;12.092;2024-03-23T11:38:01;0.50;;;0.40;;
16093;SDS011;8151;47.824;12.092;2024-03-23T11:40:32;0.33;;;0.20;;
16093;SDS011;8151;47.824;12.092;2024-03-23T11:43:02;0.60;;;0.53;;
16093;SDS011;8151;47.824;12.092;2024-03-23T11:45:33;0.23;;;0.20;;
16093;SDS011;8151;47.824;12.092;2024-03-23T11:48:05;1.30;;;0.23;;
16093;SDS011;8151;47.824;12.092;2024-03-23T11:50:34;0.30;;;0.20;;
16093;SDS011;8151;47.824;12.092;2024-03-23T11:53:06;0.90;;;0.67;;
16093;SDS011;8151;47.824;12.092;2024-03-23T11:55:46;0.57;;;0.57;;
16093;SDS011;8151;47.824;12.092;2024-03-23T11:58:15;0.63;;;0.30;;
16093;SDS011;8151;47.824;12.092;2024-03-23T12:00:49;0.40;;;0.40;;
16093;SDS011;8151;47.824;12.092;2024-03-23T12:03:17;0.57;;;0.57;;
16093;SDS011;8151;47.824;12.092;2024-03-23T12:05:47;3.20;;;0.50;;
16093;SDS011;8151;47.824;12.092;2024-03-23T12:08:22;0.50;;;0.40;;
16093;SDS011;8151;47.824;12.092;2024-03-23T12:10:51;0.30;;;0.30;;
16093;SDS011;8151;47.824;12.092;2024-03-23T12:13:20;6.00;;;0.37;;
16093;SDS011;8151;47.824;12.092;2024-03-23T12:15:49;0.37;;;0.37;;
16093;SDS011;8151;47.824;12.092;2024-03-23T12:18:16;0.77;;;0.40;;
16093;SDS011;8151;47.824;12.092;2024-03-23T12:20:44;0.37;;;0.37;;
16093;SDS011;8151;47.824;12.092;2024-03-23T12:23:11;0.40;;;0.33;;
16093;SDS011;8151;47.824;12.092;2024-03-23T12:25:39;0.83;;;0.50;;
16093;SDS011;8151;47.824;12.092;2024-03-23T12:28:06;1.23;;;0.50;;
16093;SDS011;8151;47.824;12.092;2024-03-23T12:30:37;1.27;;;0.57;;
16093;SDS011;8151;47.824;12.092;2024-03-23T12:33:05;1.60;;;0.63;;
16093;SDS011;8151;47.824;12.092;2024-03-23T12:35:33;0.53;;;0.47;;
16093;SDS011;8151;47.824;12.092;2024-03-23T12:38:00;0.40;;;0.40;;
16093;SDS011;8151;47.824;12.092;2024-03-23T12:40:27;0.77;;;0.63;;
16093;SDS011;8151;47.824;12.092;2024-03-23T12:42:54;1.10;;;0.63;;
16093;SDS011;8151;47.824;12.092;2024-03-23T12:45:21;0.83;;;0.73;;
16093;SDS011;8151;47.824;12.092;2024-03-23T12:47:49;1.80;;;1.47;;
16093;SDS011;8151;47.824;12.092;2024-03-23T12:50:18;2.43;;;1.00;;
16093;SDS011;8151;47.824;12.092;2024-03-23T12:52:45;0.40;;;0.40;;
16093;SDS011;8151;47.824;12.092;2024-03-23T12:55:12;2.30;;;0.50;;
16093;SDS011;8151;47.824;12.092;2024-03-23T12:57:39;1.10;;;0.90;;
16093;SDS011;8151;47.824;12.092;2024-03-23T13:00:07;1.20;;;1.10;;
16093;SDS011;8151;47.824;12.092;2024-03-23T13:02:37;1.57;;;1.10;;
16093;SDS011;8151;47.824;12.092;2024-03-23T13:05:07;0.60;;;0.60;;
16093;SDS011;8151;47.824;12.092;2024-03-23T13:07:34;1.40;;;1.00;;
16093;SDS011;8151;47.824;12.092;2024-03-23T13:10:03;1.13;;;0.90;;
16093;SDS011;8151;47.824;12.092;2024-03-23T13:12:30;0.53;;;0.53;;
16093;SDS011;8151;47.824;12.092;2024-03-23T13:14:58;1.40;;;0.53;;
16093;SDS011;8151;47.824;12.092;2024-03-23T13:17:25;1.73;;;0.60;;
16093;SDS011;8151;47.824;12.092;2024-03-23T13:19:53;0.60;;;0.40;;
16093;SDS011;8151;47.824;12.092;2024-03-23T13:22:22;1.87;;;1.27;;
16093;SDS011;8151;47.824;12.092;2024-03-23T13:24:50;1.57;;;1.20;;
16093;SDS011;8151;47.824;12.092;2024-03-23T13:27:17;1.40;;;0.70;;
16093;SDS011;8151;47.824;12.092;2024-03-23T13:29:44;0.60;;;0.50;;
16093;SDS011;8151;47.824;12.092;2024-03-23T13:32:12;1.03;;;0.93;;
16093;SDS011;8151;47.824;12.092;2024-03-23T13:34:40;0.63;;;0.63;;
16093;SDS011;8151;47.824;12.092;2024-03-23T13:37:06;1.07;;;0.60;;
16093;SDS011;8151;47.824;12.092;2024-03-23T13:39:37;1.00;;;0.90;;
16093;SDS011;8151;47.824;12.092;2024-03-23T13:42:03;1.57;;;1.00;;
16093;SDS011;8151;47.824;12.092;2024-03-23T13:44:31;0.93;;;0.80;;
16093;SDS011;8151;47.824;12.092;2024-03-23T13:46:58;0.63;;;0.63;;
16093;SDS011;8151;47.824;12.092;2024-03-23T13:49:26;0.87;;;0.63;;
16093;SDS011;8151;47.824;12.092;2024-03-23T13:51:53;1.50;;;0.93;;
16093;SDS011;8151;47.824;12.092;2024-03-23T13:54:21;0.70;;;0.70;;
16093;SDS011;8151;47.824;12.092;2024-03-23T13:56:49;1.40;;;1.00;;
16093;SDS011;8151;47.824;12.092;2024-03-23T13:59:17;2.93;;;1.17;;
16093;SDS011;8151;47.824;12.092;2024-03-23T14:01:44;1.83;;;0.87;;
16093;SDS011;8151;47.824;12.092;2024-03-23T14:04:12;3.40;;;1.20;;
16093;SDS011;8151;47.824;12.092;2024-03-23T14:06:38;1.03;;;0.90;;
16093;SDS011;8151;47.824;12.092;2024-03-23T14:09:07;1.03;;;0.93;;
16093;SDS011;8151;47.824;12.092;2024-03-23T14:11:34;1.33;;;0.97;;
16093;SDS011;8151;47.824;12.092;2024-03-23T14:14:04;1.17;;;0.97;;
16093;SDS011;8151;47.824;12.092;2024-03-23T14:16:31;0.83;;;0.83;;
16093;SDS011;8151;47.824;12.092;2024-03-23T14:18:59;1.03;;;0.70;;
16093;SDS011;8151;47.824;12.092;2024-03-23T14:21:25;1.30;;;1.03;;
16093;SDS011;8151;47.824;12.092;2024-03-23T14:23:53;1.23;;;1.00;;
16093;SDS011;8151;47.824;12.092;2024-03-23T14:26:19;1.63;;;1.10;;
16093;SDS011;8151;47.824;12.092;2024-03-23T14:28:47;1.00;;;0.80;;
16093;SDS011;8151;47.824;12.092;2024-03-23T14:31:15;2.43;;;0.93;;
16093;SDS011;8151;47.824;12.092;2024-03-23T14:33:42;2.27;;;1.20;;
16093;SDS011;8151;47.824;12.092;2024-03-23T14:36:12;4.57;;;1.07;;
16093;SDS011;8151;47.824;12.092;2024-03-23T14:38:39;1.57;;;1.13;;
16093;SDS011;8151;47.824;12.092;2024-03-23T14:41:06;1.40;;;1.00;;
16093;SDS011;8151;47.824;12.092;2024-03-23T14:43:34;1.93;;;1.00;;
16093;SDS011;8151;47.824;12.092;2024-03-23T14:46:06;1.60;;;0.80;;
16093;SDS011;8151;47.824;12.092;2024-03-23T14:48:36;0.83;;;0.80;;
16093;SDS011;8151;47.824;12.092;2024-03-23T14:51:04;6.27;;;0.83;;
16093;SDS011;8151;47.824;12.092;2024-03-23T14:53:32;3.30;;;1.00;;
16093;SDS011;8151;47.824;12.092;2024-03-23T14:55:59;2.13;;;0.70;;
16093;SDS011;8151;47.824;12.092;2024-03-23T14:58:27;1.70;;;0.87;;
16093;SDS011;8151;47.824;12.092;2024-03-23T15:00:59;3.37;;;1.10;;
16093;SDS011;8151;47.824;12.092;2024-03-23T15:03:27;2.47;;;1.60;;
16093;SDS011;8151;47.824;12.092;2024-03-23T15:05:56;6.83;;;3.33;;
16093;SDS011;8151;47.824;12.092;2024-03-23T15:08:25;5.37;;;2.73;;
16093;SDS011;8151;47.824;12.092;2024-03-23T15:10:51;1.43;;;1.30;;
16093;SDS011;8151;47.824;12.092;2024-03-23T15:13:19;1.70;;;1.13;;
16093;SDS011;8151;47.824;12.092;2024-03-23T15:15:48;1.53;;;1.43;;
16093;SDS011;8151;47.824;12.092;2024-03-23T15:18:15;1.77;;;1.50;;
16093;SDS011;8151;47.824;12.092;2024-03-23T15:20:55;2.00;;;1.37;;
16093;SDS011;8151;47.824;12.092;2024-03-23T15:23:23;3.23;;;1.33;;
16093;SDS011;8151;47.824;12.092;2024-03-23T15:25:53;1.60;;;1.50;;
16093;SDS011;8151;47.824;12.092;2024-03-23T15:28:20;5.27;;;1.90;;
16093;SDS011;8151;47.824;12.092;2024-03-23T15:30:48;3.63;;;1.90;;
16093;SDS011;8151;47.824;12.092;2024-03-23T15:33:14;4.80;;;2.10;;
16093;SDS011;8151;47.824;12.092;2024-03-23T15:35:42;3.20;;;1.93;;
16093;SDS011;8151;47.824;12.092;2024-03-23T15:38:10;2.77;;;1.80;;
16093;SDS011;8151;47.824;12.092;2024-03-23T15:40:37;3.97;;;1.80;;
16093;SDS011;8151;47.824;12.092;2024-03-23T15:43:04;4.20;;;2.30;;
16093;SDS011;8151;47.824;12.092;2024-03-23T15:45:31;3.80;;;2.20;;